sensor_id;sensor_type;location;lat;lon;timestamp;P1;durP1;ratioP1;P2;durP2;ratioP2
12707;SDS011;6418;50.824;4.718;2022-10-04T00:00:58;28.00;;;15.10;;
12707;SDS011;6418;50.824;4.718;2022-10-04T00:03:30;23.80;;;14.77;;
12707;SDS011;6418;50.824;4.718;2022-10-04T00:06:01;25.43;;;16.13;;
12707;SDS011;6418;50.824;4.718;2022-10-04T00:08:33;27.10;;;15.27;;
12707;SDS011;6418;50.824;4.718;2022-10-04T00:11:06;24.57;;;14.40;;
12707;SDS011;6418;50.824;4.718;2022-10-04T00:13:39;27.77;;;14.43;;
12707;SDS011;6418;50.824;4.718;2022-10-04T00:16:11;28.00;;;13.37;;
12707;SDS011;6418;50.824;4.718;2022-10-04T00:18:47;25.70;;;13.53;;
12707;SDS011;6418;50.824;4.718;2022-10-04T00:21:25;23.27;;;13.50;;
12707;SDS011;6418;50.824;4.718;2022-10-04T00:24:34;23.27;;;12.43;;
12707;SDS011;6418;50.824;4.718;2022-10-04T00:27:09;22.10;;;12.93;;
12707;SDS011;6418;50.824;4.718;2022-10-04T00:29:38;25.77;;;14.03;;
12707;SDS011;6418;50.824;4.718;2022-10-04T00:34:54;26.13;;;14.73;;
12707;SDS011;6418;50.824;4.718;2022-10-04T00:37:24;26.73;;;14.97;;
12707;SDS011;6418;50.824;4.718;2022-10-04T00:39:57;24.10;;;14.90;;
12707;SDS011;6418;50.824;4.718;2022-10-04T00:42:38;25.97;;;14.43;;
12707;SDS011;6418;50.824;4.718;2022-10-04T00:45:16;24.87;;;14.67;;
12707;SDS011;6418;50.824;4.718;2022-10-04T00:50:47;24.33;;;14.87;;
12707;SDS011;6418;50.824;4.718;2022-10-04T00:53:20;25.23;;;15.07;;
12707;SDS011;6418;50.824;4.718;2022-10-04T00:55:57;28.20;;;15.73;;
12707;SDS011;6418;50.824;4.718;2022-10-04T00:58:28;23.20;;;14.30;;
12707;SDS011;6418;50.824;4.718;2022-10-04T01:01:00;26.40;;;14.93;;
12707;SDS011;6418;50.824;4.718;2022-10-04T01:03:29;25.23;;;15.73;;
12707;SDS011;6418;50.824;4.718;2022-10-04T01:06:00;32.20;;;16.17;;
12707;SDS011;6418;50.824;4.718;2022-10-04T01:08:31;29.73;;;16.60;;
12707;SDS011;6418;50.824;4.718;2022-10-04T01:11:05;30.07;;;17.07;;
12707;SDS011;6418;50.824;4.718;2022-10-04T01:13:36;32.20;;;16.90;;
12707;SDS011;6418;50.824;4.718;2022-10-04T01:16:08;35.47;;;16.73;;
12707;SDS011;6418;50.824;4.718;2022-10-04T01:18:38;28.93;;;16.93;;
12707;SDS011;6418;50.824;4.718;2022-10-04T01:21:06;29.67;;;16.97;;
12707;SDS011;6418;50.824;4.718;2022-10-04T01:23:47;33.03;;;16.60;;
12707;SDS011;6418;50.824;4.718;2022-10-04T01:29:13;29.47;;;16.47;;
12707;SDS011;6418;50.824;4.718;2022-10-04T01:31:43;29.67;;;17.43;;
12707;SDS011;6418;50.824;4.718;2022-10-04T01:34:12;30.43;;;17.07;;
12707;SDS011;6418;50.824;4.718;2022-10-04T01:36:41;31.97;;;17.40;;
12707;SDS011;6418;50.824;4.718;2022-10-04T01:39:13;30.27;;;16.83;;
12707;SDS011;6418;50.824;4.718;2022-10-04T01:41:42;32.60;;;17.63;;
12707;SDS011;6418;50.824;4.718;2022-10-04T01:44:15;32.87;;;18.57;;
12707;SDS011;6418;50.824;4.718;2022-10-04T01:46:48;32.70;;;18.77;;
12707;SDS011;6418;50.824;4.718;2022-10-04T01:49:18;35.20;;;18.37;;
12707;SDS011;6418;50.824;4.718;2022-10-04T01:51:51;32.70;;;18.37;;
12707;SDS011;6418;50.824;4.718;2022-10-04T01:54:24;33.87;;;18.80;;
12707;SDS011;6418;50.824;4.718;2022-10-04T01:56:59;34.50;;;19.10;;
12707;SDS011;6418;50.824;4.718;2022-10-04T01:59:33;35.53;;;18.70;;
12707;SDS011;6418;50.824;4.718;2022-10-04T02:02:05;31.30;;;16.23;;
12707;SDS011;6418;50.824;4.718;2022-10-04T02:04:36;35.77;;;17.97;;
12707;SDS011;6418;50.824;4.718;2022-10-04T02:07:10;32.90;;;16.73;;
12707;SDS011;6418;50.824;4.718;2022-10-04T02:09:40;33.67;;;18.87;;
12707;SDS011;6418;50.824;4.718;2022-10-04T02:12:13;30.57;;;18.13;;
12707;SDS011;6418;50.824;4.718;2022-10-04T02:14:42;32.53;;;16.80;;
12707;SDS011;6418;50.824;4.718;2022-10-04T02:17:17;29.57;;;16.83;;
12707;SDS011;6418;50.824;4.718;2022-10-04T02:19:46;28.67;;;17.53;;
12707;SDS011;6418;50.824;4.718;2022-10-04T02:22:14;36.63;;;18.23;;
12707;SDS011;6418;50.824;4.718;2022-10-04T02:24:44;29.97;;;17.70;;
12707;SDS011;6418;50.824;4.718;2022-10-04T02:27:13;28.63;;;16.53;;
12707;SDS011;6418;50.824;4.718;2022-10-04T02:29:41;29.57;;;16.37;;
12707;SDS011;6418;50.824;4.718;2022-10-04T02:32:08;29.43;;;17.60;;
12707;SDS011;6418;50.824;4.718;2022-10-04T02:34:54;33.40;;;18.37;;
12707;SDS011;6418;50.824;4.718;2022-10-04T02:37:21;34.67;;;18.00;;
12707;SDS011;6418;50.824;4.718;2022-10-04T02:39:52;38.07;;;18.80;;
12707;SDS011;6418;50.824;4.718;2022-10-04T02:42:26;35.40;;;18.23;;
12707;SDS011;6418;50.824;4.718;2022-10-04T02:45:04;35.57;;;18.40;;
12707;SDS011;6418;50.824;4.718;2022-10-04T02:47:42;30.73;;;17.60;;
12707;SDS011;6418;50.824;4.718;2022-10-04T02:50:17;34.20;;;17.73;;
12707;SDS011;6418;50.824;4.718;2022-10-04T02:52:52;33.47;;;18.37;;
12707;SDS011;6418;50.824;4.718;2022-10-04T02:55:25;31.43;;;17.40;;
12707;SDS011;6418;50.824;4.718;2022-10-04T02:57:54;30.17;;;17.40;;
12707;SDS011;6418;50.824;4.718;2022-10-04T03:00:24;34.27;;;16.87;;
12707;SDS011;6418;50.824;4.718;2022-10-04T03:03:07;28.97;;;16.10;;
12707;SDS011;6418;50.824;4.718;2022-10-04T03:05:40;30.50;;;16.20;;
12707;SDS011;6418;50.824;4.718;2022-10-04T03:08:08;28.20;;;15.37;;
12707;SDS011;6418;50.824;4.718;2022-10-04T03:10:37;30.87;;;16.13;;
12707;SDS011;6418;50.824;4.718;2022-10-04T03:13:07;29.20;;;16.33;;
12707;SDS011;6418;50.824;4.718;2022-10-04T03:15:34;33.20;;;16.27;;
12707;SDS011;6418;50.824;4.718;2022-10-04T03:18:01;38.37;;;16.97;;
12707;SDS011;6418;50.824;4.718;2022-10-04T03:20:28;32.60;;;16.70;;
12707;SDS011;6418;50.824;4.718;2022-10-04T03:22:55;34.10;;;16.37;;
12707;SDS011;6418;50.824;4.718;2022-10-04T03:25:23;36.13;;;17.07;;
12707;SDS011;6418;50.824;4.718;2022-10-04T03:27:55;34.30;;;16.17;;
12707;SDS011;6418;50.824;4.718;2022-10-04T03:30:26;32.10;;;16.00;;
12707;SDS011;6418;50.824;4.718;2022-10-04T03:32:55;30.97;;;17.20;;
12707;SDS011;6418;50.824;4.718;2022-10-04T03:35:25;32.97;;;16.80;;
12707;SDS011;6418;50.824;4.718;2022-10-04T03:37:55;36.27;;;16.50;;
12707;SDS011;6418;50.824;4.718;2022-10-04T03:40:26;37.07;;;17.07;;
12707;SDS011;6418;50.824;4.718;2022-10-04T03:42:57;36.77;;;16.63;;
12707;SDS011;6418;50.824;4.718;2022-10-04T03:45:26;33.83;;;16.27;;
12707;SDS011;6418;50.824;4.718;2022-10-04T03:47:55;33.63;;;17.27;;
12707;SDS011;6418;50.824;4.718;2022-10-04T03:50:30;33.80;;;17.17;;
12707;SDS011;6418;50.824;4.718;2022-10-04T03:53:00;33.90;;;17.50;;
12707;SDS011;6418;50.824;4.718;2022-10-04T03:55:32;37.73;;;17.97;;
12707;SDS011;6418;50.824;4.718;2022-10-04T03:58:03;34.33;;;16.73;;
12707;SDS011;6418;50.824;4.718;2022-10-04T04:00:32;38.43;;;16.53;;
12707;SDS011;6418;50.824;4.718;2022-10-04T04:03:05;33.53;;;16.67;;
12707;SDS011;6418;50.824;4.718;2022-10-04T04:05:34;38.10;;;16.70;;
12707;SDS011;6418;50.824;4.718;2022-10-04T04:08:10;35.67;;;16.70;;
12707;SDS011;6418;50.824;4.718;2022-10-04T04:10:41;33.60;;;15.70;;
12707;SDS011;6418;50.824;4.718;2022-10-04T04:13:15;32.40;;;16.87;;
12707;SDS011;6418;50.824;4.718;2022-10-04T04:15:49;32.27;;;16.70;;
12707;SDS011;6418;50.824;4.718;2022-10-04T04:18:18;32.73;;;17.00;;
12707;SDS011;6418;50.824;4.718;2022-10-04T04:20:48;28.67;;;16.37;;
12707;SDS011;6418;50.824;4.718;2022-10-04T04:23:19;35.47;;;17.60;;
12707;SDS011;6418;50.824;4.718;2022-10-04T04:25:52;33.70;;;16.77;;
12707;SDS011;6418;50.824;4.718;2022-10-04T04:28:24;38.70;;;17.13;;
12707;SDS011;6418;50.824;4.718;2022-10-04T04:30:54;36.17;;;16.93;;
12707;SDS011;6418;50.824;4.718;2022-10-04T04:33:25;35.20;;;17.00;;
12707;SDS011;6418;50.824;4.718;2022-10-04T04:35:57;30.07;;;15.93;;
12707;SDS011;6418;50.824;4.718;2022-10-04T04:38:29;40.93;;;16.47;;
12707;SDS011;6418;50.824;4.718;2022-10-04T04:40:56;36.70;;;16.13;;
12707;SDS011;6418;50.824;4.718;2022-10-04T04:43:35;35.10;;;16.93;;
12707;SDS011;6418;50.824;4.718;2022-10-04T04:46:02;31.33;;;16.23;;
12707;SDS011;6418;50.824;4.718;2022-10-04T04:48:36;31.20;;;15.63;;
12707;SDS011;6418;50.824;4.718;2022-10-04T04:51:03;33.83;;;16.03;;
12707;SDS011;6418;50.824;4.718;2022-10-04T04:53:30;41.03;;;16.63;;
12707;SDS011;6418;50.824;4.718;2022-10-04T04:55:58;34.13;;;15.17;;
12707;SDS011;6418;50.824;4.718;2022-10-04T04:58:27;35.03;;;15.20;;
12707;SDS011;6418;50.824;4.718;2022-10-04T05:01:01;31.00;;;14.90;;
12707;SDS011;6418;50.824;4.718;2022-10-04T05:03:30;29.93;;;14.83;;
12707;SDS011;6418;50.824;4.718;2022-10-04T05:05:58;33.80;;;14.63;;
12707;SDS011;6418;50.824;4.718;2022-10-04T05:08:27;30.37;;;14.33;;
12707;SDS011;6418;50.824;4.718;2022-10-04T05:10:58;30.27;;;13.97;;
12707;SDS011;6418;50.824;4.718;2022-10-04T05:13:30;33.67;;;13.80;;
12707;SDS011;6418;50.824;4.718;2022-10-04T05:16:13;29.23;;;14.50;;
12707;SDS011;6418;50.824;4.718;2022-10-04T05:18:44;27.37;;;13.07;;
12707;SDS011;6418;50.824;4.718;2022-10-04T05:21:14;29.53;;;13.63;;
12707;SDS011;6418;50.824;4.718;2022-10-04T05:23:48;34.73;;;13.77;;
12707;SDS011;6418;50.824;4.718;2022-10-04T05:26:16;33.00;;;13.50;;
12707;SDS011;6418;50.824;4.718;2022-10-04T05:28:49;27.93;;;13.03;;
12707;SDS011;6418;50.824;4.718;2022-10-04T05:31:22;30.97;;;14.13;;
12707;SDS011;6418;50.824;4.718;2022-10-04T05:34:01;30.70;;;14.27;;
12707;SDS011;6418;50.824;4.718;2022-10-04T05:39:36;32.50;;;15.33;;
12707;SDS011;6418;50.824;4.718;2022-10-04T05:42:11;31.73;;;14.37;;
12707;SDS011;6418;50.824;4.718;2022-10-04T05:44:48;32.00;;;14.30;;
12707;SDS011;6418;50.824;4.718;2022-10-04T05:47:21;30.30;;;14.97;;
12707;SDS011;6418;50.824;4.718;2022-10-04T05:49:52;30.73;;;14.93;;
12707;SDS011;6418;50.824;4.718;2022-10-04T05:52:25;36.70;;;15.13;;
12707;SDS011;6418;50.824;4.718;2022-10-04T05:55:20;31.70;;;15.67;;
12707;SDS011;6418;50.824;4.718;2022-10-04T06:00:57;35.50;;;15.63;;
12707;SDS011;6418;50.824;4.718;2022-10-04T06:03:50;34.37;;;15.00;;
12707;SDS011;6418;50.824;4.718;2022-10-04T06:06:29;32.87;;;15.70;;
12707;SDS011;6418;50.824;4.718;2022-10-04T06:09:06;39.83;;;15.37;;
12707;SDS011;6418;50.824;4.718;2022-10-04T06:11:42;32.83;;;15.77;;
12707;SDS011;6418;50.824;4.718;2022-10-04T06:14:26;40.03;;;15.63;;
12707;SDS011;6418;50.824;4.718;2022-10-04T06:23:11;32.47;;;14.67;;
12707;SDS011;6418;50.824;4.718;2022-10-04T06:25:42;32.83;;;15.47;;
12707;SDS011;6418;50.824;4.718;2022-10-04T06:28:16;36.80;;;15.37;;
12707;SDS011;6418;50.824;4.718;2022-10-04T06:30:52;32.83;;;14.93;;
12707;SDS011;6418;50.824;4.718;2022-10-04T06:33:46;34.97;;;14.73;;
12707;SDS011;6418;50.824;4.718;2022-10-04T06:36:44;36.57;;;15.37;;
12707;SDS011;6418;50.824;4.718;2022-10-04T06:39:30;31.93;;;15.37;;
12707;SDS011;6418;50.824;4.718;2022-10-04T06:45:32;26.00;;;13.77;;
12707;SDS011;6418;50.824;4.718;2022-10-04T06:48:14;33.37;;;14.73;;
12707;SDS011;6418;50.824;4.718;2022-10-04T06:50:54;30.73;;;14.23;;
12707;SDS011;6418;50.824;4.718;2022-10-04T06:53:29;31.87;;;14.13;;
12707;SDS011;6418;50.824;4.718;2022-10-04T06:56:13;34.53;;;14.50;;
12707;SDS011;6418;50.824;4.718;2022-10-04T06:58:56;27.60;;;15.03;;
12707;SDS011;6418;50.824;4.718;2022-10-04T07:01:46;30.63;;;14.57;;
12707;SDS011;6418;50.824;4.718;2022-10-04T07:04:19;26.67;;;12.93;;
12707;SDS011;6418;50.824;4.718;2022-10-04T07:06:57;29.10;;;13.50;;
12707;SDS011;6418;50.824;4.718;2022-10-04T07:09:48;26.93;;;12.67;;
12707;SDS011;6418;50.824;4.718;2022-10-04T07:12:17;30.93;;;13.77;;
12707;SDS011;6418;50.824;4.718;2022-10-04T07:14:45;29.73;;;13.70;;
12707;SDS011;6418;50.824;4.718;2022-10-04T07:17:16;30.37;;;13.40;;
12707;SDS011;6418;50.824;4.718;2022-10-04T07:19:48;27.13;;;13.63;;
12707;SDS011;6418;50.824;4.718;2022-10-04T07:22:19;29.57;;;13.23;;
12707;SDS011;6418;50.824;4.718;2022-10-04T07:24:55;29.60;;;14.40;;
12707;SDS011;6418;50.824;4.718;2022-10-04T07:27:29;29.77;;;13.97;;
12707;SDS011;6418;50.824;4.718;2022-10-04T07:29:59;26.30;;;13.30;;
12707;SDS011;6418;50.824;4.718;2022-10-04T07:32:30;29.63;;;13.50;;
12707;SDS011;6418;50.824;4.718;2022-10-04T07:35:01;30.23;;;13.97;;
12707;SDS011;6418;50.824;4.718;2022-10-04T07:37:43;29.97;;;14.33;;
12707;SDS011;6418;50.824;4.718;2022-10-04T07:40:20;26.77;;;13.97;;
12707;SDS011;6418;50.824;4.718;2022-10-04T07:42:51;29.87;;;15.03;;
12707;SDS011;6418;50.824;4.718;2022-10-04T07:45:24;28.63;;;13.73;;
12707;SDS011;6418;50.824;4.718;2022-10-04T07:48:09;29.83;;;15.20;;
12707;SDS011;6418;50.824;4.718;2022-10-04T07:50:40;28.77;;;14.87;;
12707;SDS011;6418;50.824;4.718;2022-10-04T07:53:14;27.27;;;14.63;;
12707;SDS011;6418;50.824;4.718;2022-10-04T07:55:50;28.57;;;14.80;;
12707;SDS011;6418;50.824;4.718;2022-10-04T07:58:25;26.30;;;14.60;;
12707;SDS011;6418;50.824;4.718;2022-10-04T08:00:59;30.93;;;14.60;;
12707;SDS011;6418;50.824;4.718;2022-10-04T08:03:33;27.00;;;13.53;;
12707;SDS011;6418;50.824;4.718;2022-10-04T08:06:13;29.33;;;13.63;;
12707;SDS011;6418;50.824;4.718;2022-10-04T08:08:54;25.50;;;13.47;;
12707;SDS011;6418;50.824;4.718;2022-10-04T08:11:44;26.90;;;13.00;;
12707;SDS011;6418;50.824;4.718;2022-10-04T08:14:26;26.80;;;13.30;;
12707;SDS011;6418;50.824;4.718;2022-10-04T08:17:06;27.80;;;12.43;;
12707;SDS011;6418;50.824;4.718;2022-10-04T08:19:43;28.00;;;13.83;;
12707;SDS011;6418;50.824;4.718;2022-10-04T08:22:21;25.97;;;13.73;;
12707;SDS011;6418;50.824;4.718;2022-10-04T08:25:00;21.30;;;11.80;;
12707;SDS011;6418;50.824;4.718;2022-10-04T08:27:42;25.17;;;12.60;;
12707;SDS011;6418;50.824;4.718;2022-10-04T08:30:37;21.53;;;12.10;;
12707;SDS011;6418;50.824;4.718;2022-10-04T08:33:17;23.90;;;11.80;;
12707;SDS011;6418;50.824;4.718;2022-10-04T08:35:53;23.53;;;11.43;;
12707;SDS011;6418;50.824;4.718;2022-10-04T08:38:35;22.00;;;11.63;;
12707;SDS011;6418;50.824;4.718;2022-10-04T08:41:25;22.20;;;11.60;;
12707;SDS011;6418;50.824;4.718;2022-10-04T08:47:48;20.03;;;11.40;;
12707;SDS011;6418;50.824;4.718;2022-10-04T08:51:00;23.13;;;11.80;;
12707;SDS011;6418;50.824;4.718;2022-10-04T09:00:08;21.90;;;11.37;;
12707;SDS011;6418;50.824;4.718;2022-10-04T09:06:04;19.17;;;11.00;;
12707;SDS011;6418;50.824;4.718;2022-10-04T09:12:08;19.83;;;10.93;;
12707;SDS011;6418;50.824;4.718;2022-10-04T09:17:49;21.43;;;10.87;;
12707;SDS011;6418;50.824;4.718;2022-10-04T09:20:26;20.83;;;11.03;;
12707;SDS011;6418;50.824;4.718;2022-10-04T09:23:11;18.93;;;10.67;;
12707;SDS011;6418;50.824;4.718;2022-10-04T09:25:56;22.40;;;10.37;;
12707;SDS011;6418;50.824;4.718;2022-10-04T09:31:45;22.03;;;10.80;;
12707;SDS011;6418;50.824;4.718;2022-10-04T09:34:31;17.53;;;9.77;;
12707;SDS011;6418;50.824;4.718;2022-10-04T09:37:10;24.23;;;9.90;;
12707;SDS011;6418;50.824;4.718;2022-10-04T09:43:10;21.40;;;10.03;;
12707;SDS011;6418;50.824;4.718;2022-10-04T09:46:05;17.33;;;9.37;;
12707;SDS011;6418;50.824;4.718;2022-10-04T09:48:44;21.83;;;10.70;;
12707;SDS011;6418;50.824;4.718;2022-10-04T09:51:28;17.30;;;9.17;;
12707;SDS011;6418;50.824;4.718;2022-10-04T09:54:17;21.17;;;9.93;;
12707;SDS011;6418;50.824;4.718;2022-10-04T09:57:13;19.70;;;9.53;;
12707;SDS011;6418;50.824;4.718;2022-10-04T09:59:55;18.93;;;9.63;;
12707;SDS011;6418;50.824;4.718;2022-10-04T10:02:46;20.17;;;9.13;;
12707;SDS011;6418;50.824;4.718;2022-10-04T10:05:51;20.00;;;9.23;;
12707;SDS011;6418;50.824;4.718;2022-10-04T10:08:39;18.83;;;9.70;;
12707;SDS011;6418;50.824;4.718;2022-10-04T10:11:14;21.33;;;9.73;;
12707;SDS011;6418;50.824;4.718;2022-10-04T10:14:15;19.20;;;9.10;;
12707;SDS011;6418;50.824;4.718;2022-10-04T10:17:00;18.37;;;8.80;;
12707;SDS011;6418;50.824;4.718;2022-10-04T10:22:57;20.00;;;8.60;;
12707;SDS011;6418;50.824;4.718;2022-10-04T10:25:43;20.30;;;8.90;;
12707;SDS011;6418;50.824;4.718;2022-10-04T10:28:40;16.13;;;8.60;;
12707;SDS011;6418;50.824;4.718;2022-10-04T10:31:25;18.10;;;8.33;;
12707;SDS011;6418;50.824;4.718;2022-10-04T10:34:12;17.03;;;8.77;;
12707;SDS011;6418;50.824;4.718;2022-10-04T10:37:07;18.70;;;8.30;;
12707;SDS011;6418;50.824;4.718;2022-10-04T10:39:46;16.33;;;8.47;;
12707;SDS011;6418;50.824;4.718;2022-10-04T10:42:25;18.37;;;8.83;;
12707;SDS011;6418;50.824;4.718;2022-10-04T10:45:13;17.47;;;7.90;;
12707;SDS011;6418;50.824;4.718;2022-10-04T10:47:51;15.63;;;8.67;;
12707;SDS011;6418;50.824;4.718;2022-10-04T10:50:26;16.03;;;8.03;;
12707;SDS011;6418;50.824;4.718;2022-10-04T11:02:35;15.03;;;7.47;;
12707;SDS011;6418;50.824;4.718;2022-10-04T11:11:49;13.57;;;7.13;;
12707;SDS011;6418;50.824;4.718;2022-10-04T11:14:43;13.03;;;7.00;;
12707;SDS011;6418;50.824;4.718;2022-10-04T11:17:40;14.73;;;6.80;;
12707;SDS011;6418;50.824;4.718;2022-10-04T11:20:43;12.67;;;6.63;;
12707;SDS011;6418;50.824;4.718;2022-10-04T11:26:57;16.67;;;7.37;;
12707;SDS011;6418;50.824;4.718;2022-10-04T11:29:42;16.33;;;6.93;;
12707;SDS011;6418;50.824;4.718;2022-10-04T11:35:37;16.03;;;7.20;;
12707;SDS011;6418;50.824;4.718;2022-10-04T11:38:25;15.30;;;6.47;;
12707;SDS011;6418;50.824;4.718;2022-10-04T11:41:06;13.60;;;6.40;;
12707;SDS011;6418;50.824;4.718;2022-10-04T11:43:46;15.37;;;6.80;;
12707;SDS011;6418;50.824;4.718;2022-10-04T11:46:41;15.00;;;6.47;;
12707;SDS011;6418;50.824;4.718;2022-10-04T11:49:24;15.47;;;6.83;;
12707;SDS011;6418;50.824;4.718;2022-10-04T11:55:18;15.07;;;6.87;;
12707;SDS011;6418;50.824;4.718;2022-10-04T11:58:02;13.67;;;6.37;;
12707;SDS011;6418;50.824;4.718;2022-10-04T12:00:44;14.10;;;6.50;;
12707;SDS011;6418;50.824;4.718;2022-10-04T12:03:34;14.60;;;6.37;;
12707;SDS011;6418;50.824;4.718;2022-10-04T12:06:19;12.93;;;6.00;;
12707;SDS011;6418;50.824;4.718;2022-10-04T12:09:02;14.50;;;6.30;;
12707;SDS011;6418;50.824;4.718;2022-10-04T12:11:46;15.03;;;6.57;;
12707;SDS011;6418;50.824;4.718;2022-10-04T12:14:50;13.30;;;6.47;;
12707;SDS011;6418;50.824;4.718;2022-10-04T12:20:50;13.10;;;6.20;;
12707;SDS011;6418;50.824;4.718;2022-10-04T12:26:49;13.97;;;6.40;;
12707;SDS011;6418;50.824;4.718;2022-10-04T12:32:31;11.90;;;6.37;;
12707;SDS011;6418;50.824;4.718;2022-10-04T12:35:04;16.27;;;6.10;;
12707;SDS011;6418;50.824;4.718;2022-10-04T12:37:48;12.63;;;6.30;;
12707;SDS011;6418;50.824;4.718;2022-10-04T12:40:33;14.53;;;5.70;;
12707;SDS011;6418;50.824;4.718;2022-10-04T12:43:08;14.67;;;6.03;;
12707;SDS011;6418;50.824;4.718;2022-10-04T12:45:48;14.40;;;5.80;;
12707;SDS011;6418;50.824;4.718;2022-10-04T12:48:26;13.97;;;5.67;;
12707;SDS011;6418;50.824;4.718;2022-10-04T12:51:07;15.90;;;5.53;;
12707;SDS011;6418;50.824;4.718;2022-10-04T12:53:45;12.83;;;5.43;;
12707;SDS011;6418;50.824;4.718;2022-10-04T12:56:22;11.30;;;5.60;;
12707;SDS011;6418;50.824;4.718;2022-10-04T12:59:06;14.80;;;5.57;;
12707;SDS011;6418;50.824;4.718;2022-10-04T13:01:45;12.83;;;5.60;;
12707;SDS011;6418;50.824;4.718;2022-10-04T13:04:24;11.90;;;5.13;;
12707;SDS011;6418;50.824;4.718;2022-10-04T13:09:54;14.37;;;5.53;;
12707;SDS011;6418;50.824;4.718;2022-10-04T13:12:55;13.13;;;5.43;;
12707;SDS011;6418;50.824;4.718;2022-10-04T13:15:37;11.10;;;5.40;;
12707;SDS011;6418;50.824;4.718;2022-10-04T13:18:12;13.03;;;6.10;;
12707;SDS011;6418;50.824;4.718;2022-10-04T13:20:49;11.63;;;5.80;;
12707;SDS011;6418;50.824;4.718;2022-10-04T13:23:38;12.40;;;5.80;;
12707;SDS011;6418;50.824;4.718;2022-10-04T13:29:12;15.00;;;6.00;;
12707;SDS011;6418;50.824;4.718;2022-10-04T13:31:47;13.47;;;5.77;;
12707;SDS011;6418;50.824;4.718;2022-10-04T13:34:20;11.60;;;5.43;;
12707;SDS011;6418;50.824;4.718;2022-10-04T13:37:04;13.10;;;5.43;;
12707;SDS011;6418;50.824;4.718;2022-10-04T13:39:56;13.60;;;6.17;;
12707;SDS011;6418;50.824;4.718;2022-10-04T13:42:47;12.87;;;5.70;;
12707;SDS011;6418;50.824;4.718;2022-10-04T13:45:28;12.27;;;5.90;;
12707;SDS011;6418;50.824;4.718;2022-10-04T13:48:09;14.03;;;6.50;;
12707;SDS011;6418;50.824;4.718;2022-10-04T13:51:00;12.40;;;5.90;;
12707;SDS011;6418;50.824;4.718;2022-10-04T13:53:39;12.57;;;6.37;;
12707;SDS011;6418;50.824;4.718;2022-10-04T13:56:43;13.33;;;5.77;;
12707;SDS011;6418;50.824;4.718;2022-10-04T13:59:23;12.40;;;5.87;;
12707;SDS011;6418;50.824;4.718;2022-10-04T14:08:28;11.67;;;5.93;;
12707;SDS011;6418;50.824;4.718;2022-10-04T14:11:25;13.90;;;5.90;;
12707;SDS011;6418;50.824;4.718;2022-10-04T14:14:13;12.37;;;6.10;;
12707;SDS011;6418;50.824;4.718;2022-10-04T14:32:50;10.50;;;5.47;;
12707;SDS011;6418;50.824;4.718;2022-10-04T14:35:52;11.77;;;5.50;;
12707;SDS011;6418;50.824;4.718;2022-10-04T14:38:37;13.63;;;5.83;;
12707;SDS011;6418;50.824;4.718;2022-10-04T14:41:34;11.97;;;5.70;;
12707;SDS011;6418;50.824;4.718;2022-10-04T14:44:28;12.00;;;5.57;;
12707;SDS011;6418;50.824;4.718;2022-10-04T14:47:21;11.93;;;5.40;;
12707;SDS011;6418;50.824;4.718;2022-10-04T14:50:14;11.87;;;5.53;;
12707;SDS011;6418;50.824;4.718;2022-10-04T14:52:52;10.70;;;5.47;;
12707;SDS011;6418;50.824;4.718;2022-10-04T14:55:35;14.20;;;5.43;;
12707;SDS011;6418;50.824;4.718;2022-10-04T14:58:23;10.70;;;5.10;;
12707;SDS011;6418;50.824;4.718;2022-10-04T15:01:13;9.87;;;4.93;;
12707;SDS011;6418;50.824;4.718;2022-10-04T15:03:51;10.43;;;5.20;;
12707;SDS011;6418;50.824;4.718;2022-10-04T15:06:42;11.77;;;5.40;;
12707;SDS011;6418;50.824;4.718;2022-10-04T15:09:24;13.00;;;5.37;;
12707;SDS011;6418;50.824;4.718;2022-10-04T15:12:25;11.43;;;5.47;;
12707;SDS011;6418;50.824;4.718;2022-10-04T15:18:24;12.07;;;5.20;;
12707;SDS011;6418;50.824;4.718;2022-10-04T15:21:00;10.03;;;5.10;;
12707;SDS011;6418;50.824;4.718;2022-10-04T15:23:36;13.90;;;5.60;;
12707;SDS011;6418;50.824;4.718;2022-10-04T15:26:10;10.47;;;5.23;;
12707;SDS011;6418;50.824;4.718;2022-10-04T15:29:02;11.23;;;5.13;;
12707;SDS011;6418;50.824;4.718;2022-10-04T15:31:36;11.97;;;5.10;;
12707;SDS011;6418;50.824;4.718;2022-10-04T15:34:20;11.77;;;5.37;;
12707;SDS011;6418;50.824;4.718;2022-10-04T15:37:04;9.97;;;5.20;;
12707;SDS011;6418;50.824;4.718;2022-10-04T15:40:20;11.37;;;5.03;;
12707;SDS011;6418;50.824;4.718;2022-10-04T15:43:01;12.20;;;5.30;;
12707;SDS011;6418;50.824;4.718;2022-10-04T15:45:50;11.73;;;5.27;;
12707;SDS011;6418;50.824;4.718;2022-10-04T15:48:45;13.43;;;5.20;;
12707;SDS011;6418;50.824;4.718;2022-10-04T15:51:37;9.97;;;5.00;;
12707;SDS011;6418;50.824;4.718;2022-10-04T15:54:56;9.83;;;5.03;;
12707;SDS011;6418;50.824;4.718;2022-10-04T15:57:34;10.20;;;5.07;;
12707;SDS011;6418;50.824;4.718;2022-10-04T16:00:19;10.47;;;5.20;;
12707;SDS011;6418;50.824;4.718;2022-10-04T16:02:53;11.10;;;5.20;;
12707;SDS011;6418;50.824;4.718;2022-10-04T16:05:31;10.63;;;5.30;;
12707;SDS011;6418;50.824;4.718;2022-10-04T16:11:02;11.87;;;5.10;;
12707;SDS011;6418;50.824;4.718;2022-10-04T16:13:51;9.83;;;4.90;;
12707;SDS011;6418;50.824;4.718;2022-10-04T16:16:46;11.40;;;5.40;;
12707;SDS011;6418;50.824;4.718;2022-10-04T16:19:30;12.00;;;4.90;;
12707;SDS011;6418;50.824;4.718;2022-10-04T16:22:11;11.17;;;5.70;;
12707;SDS011;6418;50.824;4.718;2022-10-04T16:24:42;11.87;;;5.30;;
12707;SDS011;6418;50.824;4.718;2022-10-04T16:30:15;12.57;;;5.87;;
12707;SDS011;6418;50.824;4.718;2022-10-04T16:32:58;11.80;;;5.60;;
12707;SDS011;6418;50.824;4.718;2022-10-04T16:35:30;10.60;;;5.20;;
12707;SDS011;6418;50.824;4.718;2022-10-04T16:38:04;10.57;;;5.30;;
12707;SDS011;6418;50.824;4.718;2022-10-04T16:40:54;12.00;;;5.30;;
12707;SDS011;6418;50.824;4.718;2022-10-04T16:43:34;11.67;;;5.40;;
12707;SDS011;6418;50.824;4.718;2022-10-04T16:46:05;12.10;;;5.40;;
12707;SDS011;6418;50.824;4.718;2022-10-04T16:48:45;11.80;;;5.20;;
12707;SDS011;6418;50.824;4.718;2022-10-04T16:51:37;12.03;;;5.77;;
12707;SDS011;6418;50.824;4.718;2022-10-04T16:57:37;12.57;;;5.37;;
12707;SDS011;6418;50.824;4.718;2022-10-04T17:00:31;10.83;;;5.20;;
12707;SDS011;6418;50.824;4.718;2022-10-04T17:03:07;11.43;;;6.13;;
12707;SDS011;6418;50.824;4.718;2022-10-04T17:05:53;11.60;;;5.73;;
12707;SDS011;6418;50.824;4.718;2022-10-04T17:08:39;11.27;;;6.20;;
12707;SDS011;6418;50.824;4.718;2022-10-04T17:11:25;12.00;;;6.83;;
12707;SDS011;6418;50.824;4.718;2022-10-04T17:13:58;13.00;;;7.17;;
12707;SDS011;6418;50.824;4.718;2022-10-04T17:16:31;15.77;;;6.97;;
12707;SDS011;6418;50.824;4.718;2022-10-04T17:19:14;14.10;;;7.40;;
12707;SDS011;6418;50.824;4.718;2022-10-04T17:21:55;11.83;;;6.20;;
12707;SDS011;6418;50.824;4.718;2022-10-04T17:24:33;12.97;;;6.20;;
12707;SDS011;6418;50.824;4.718;2022-10-04T17:27:25;13.43;;;5.70;;
12707;SDS011;6418;50.824;4.718;2022-10-04T17:30:09;13.93;;;5.80;;
12707;SDS011;6418;50.824;4.718;2022-10-04T17:32:47;15.37;;;5.93;;
12707;SDS011;6418;50.824;4.718;2022-10-04T17:35:51;12.07;;;6.33;;
12707;SDS011;6418;50.824;4.718;2022-10-04T17:38:38;15.43;;;6.30;;
12707;SDS011;6418;50.824;4.718;2022-10-04T17:41:13;11.83;;;6.10;;
12707;SDS011;6418;50.824;4.718;2022-10-04T17:43:57;10.93;;;5.67;;
12707;SDS011;6418;50.824;4.718;2022-10-04T17:46:42;12.03;;;6.10;;
12707;SDS011;6418;50.824;4.718;2022-10-04T17:49:15;16.17;;;6.60;;
12707;SDS011;6418;50.824;4.718;2022-10-04T17:52:11;12.37;;;6.30;;
12707;SDS011;6418;50.824;4.718;2022-10-04T17:55:02;14.33;;;6.93;;
12707;SDS011;6418;50.824;4.718;2022-10-04T17:57:44;13.67;;;6.13;;
12707;SDS011;6418;50.824;4.718;2022-10-04T18:00:19;12.50;;;6.53;;